sensor_id;sensor_type;location;lat;lon;timestamp;pressure;altitude;pressure_sealevel;temperature;humidity
76858;BME280;65830;0.000;0.000;2024-01-30T00:02:06;101959.69;;;1.24;63.19
76858;BME280;65830;0.000;0.000;2024-01-30T00:04:32;101959.75;;;1.19;63.26
76858;BME280;65830;0.000;0.000;2024-01-30T00:06:57;101952.78;;;1.20;63.10
76858;BME280;65830;0.000;0.000;2024-01-30T00:09:23;101966.53;;;1.33;62.54
76858;BME280;65830;0.000;0.000;2024-01-30T00:11:48;101954.94;;;1.49;62.36
76858;BME280;65830;0.000;0.000;2024-01-30T00:14:14;101971.25;;;1.65;61.63
76858;BME280;65830;0.000;0.000;2024-01-30T00:16:39;101965.13;;;1.66;61.14
76858;BME280;65830;0.000;0.000;2024-01-30T00:19:04;101958.19;;;1.64;61.24
76858;BME280;65830;0.000;0.000;2024-01-30T00:21:30;101961.16;;;1.41;62.20
76858;BME280;65830;0.000;0.000;2024-01-30T00:23:55;101966.50;;;1.34;63.14
76858;BME280;65830;0.000;0.000;2024-01-30T00:26:21;101957.06;;;1.26;63.90
76858;BME280;65830;0.000;0.000;2024-01-30T00:28:47;101964.06;;;1.22;63.93
76858;BME280;65830;0.000;0.000;2024-01-30T00:31:12;101967.41;;;1.32;63.25
76858;BME280;65830;0.000;0.000;2024-01-30T00:33:38;101962.16;;;1.35;63.68
76858;BME280;65830;0.000;0.000;2024-01-30T00:36:04;101965.75;;;1.25;63.25
76858;BME280;65830;0.000;0.000;2024-01-30T00:38:30;101968.28;;;1.32;63.48
76858;BME280;65830;0.000;0.000;2024-01-30T00:40:56;101969.16;;;1.33;63.05
76858;BME280;65830;0.000;0.000;2024-01-30T00:43:21;101967.63;;;1.16;64.01
76858;BME280;65830;0.000;0.000;2024-01-30T00:45:47;101966.03;;;1.06;64.66
76858;BME280;65830;0.000;0.000;2024-01-30T00:48:12;101973.06;;;1.01;66.30
76858;BME280;65830;0.000;0.000;2024-01-30T00:50:38;101974.97;;;0.91;66.82
76858;BME280;65830;0.000;0.000;2024-01-30T00:53:03;101966.38;;;0.82;67.48
76858;BME280;65830;0.000;0.000;2024-01-30T00:55:29;101969.09;;;0.75;68.37
76858;BME280;65830;0.000;0.000;2024-01-30T00:57:54;101962.97;;;0.76;67.79
76858;BME280;65830;0.000;0.000;2024-01-30T01:00:20;101964.63;;;0.81;67.00
76858;BME280;65830;0.000;0.000;2024-01-30T01:02:46;101964.63;;;0.84;66.84
76858;BME280;65830;0.000;0.000;2024-01-30T01:05:11;101962.03;;;0.79;66.41
76858;BME280;65830;0.000;0.000;2024-01-30T01:07:37;101963.78;;;0.80;66.18
76858;BME280;65830;0.000;0.000;2024-01-30T01:10:03;101963.72;;;0.83;65.76
76858;BME280;65830;0.000;0.000;2024-01-30T01:12:29;101962.63;;;1.01;65.53
76858;BME280;65830;0.000;0.000;2024-01-30T01:14:54;101961.00;;;0.91;65.97
76858;BME280;65830;0.000;0.000;2024-01-30T01:17:20;101958.44;;;0.89;67.16
76858;BME280;65830;0.000;0.000;2024-01-30T01:19:45;101956.03;;;0.72;67.29
76858;BME280;65830;0.000;0.000;2024-01-30T01:22:11;101957.84;;;0.67;67.73
76858;BME280;65830;0.000;0.000;2024-01-30T01:24:36;101950.91;;;0.66;68.10
76858;BME280;65830;0.000;0.000;2024-01-30T01:27:02;101940.47;;;0.65;68.37
76858;BME280;65830;0.000;0.000;2024-01-30T01:29:28;101942.16;;;0.67;68.22
76858;BME280;65830;0.000;0.000;2024-01-30T01:31:54;101939.53;;;0.70;68.38
76858;BME280;65830;0.000;0.000;2024-01-30T01:34:21;101943.84;;;0.73;68.01
76858;BME280;65830;0.000;0.000;2024-01-30T01:36:47;101941.19;;;0.76;68.00
76858;BME280;65830;0.000;0.000;2024-01-30T01:39:12;101938.66;;;0.70;68.62
76858;BME280;65830;0.000;0.000;2024-01-30T01:41:38;101934.28;;;0.70;68.60
76858;BME280;65830;0.000;0.000;2024-01-30T01:44:03;101937.81;;;0.68;69.01
76858;BME280;65830;0.000;0.000;2024-01-30T01:46:29;101943.25;;;0.49;70.53
76858;BME280;65830;0.000;0.000;2024-01-30T01:48:55;101943.41;;;0.35;71.25
76858;BME280;65830;0.000;0.000;2024-01-30T01:51:21;101935.72;;;0.26;71.84
76858;BME280;65830;0.000;0.000;2024-01-30T01:53:48;101939.03;;;0.37;71.10
76858;BME280;65830;0.000;0.000;2024-01-30T01:56:14;101937.09;;;0.55;70.94
76858;BME280;65830;0.000;0.000;2024-01-30T01:58:39;101940.72;;;0.45;70.89
76858;BME280;65830;0.000;0.000;2024-01-30T02:01:05;101943.50;;;0.28;72.47
76858;BME280;65830;0.000;0.000;2024-01-30T02:03:31;101942.75;;;0.18;72.58
76858;BME280;65830;0.000;0.000;2024-01-30T02:05:57;101949.63;;;0.24;73.03
76858;BME280;65830;0.000;0.000;2024-01-30T02:08:23;101948.03;;;0.12;73.96
76858;BME280;65830;0.000;0.000;2024-01-30T02:10:49;101950.56;;;0.19;74.02
76858;BME280;65830;0.000;0.000;2024-01-30T02:13:14;101947.94;;;0.23;74.42
76858;BME280;65830;0.000;0.000;2024-01-30T02:15:40;101934.63;;;0.43;73.35
76858;BME280;65830;0.000;0.000;2024-01-30T02:18:05;101939.00;;;0.41;72.78
76858;BME280;65830;0.000;0.000;2024-01-30T02:20:32;101941.56;;;0.45;72.94
76858;BME280;65830;0.000;0.000;2024-01-30T02:23:00;101954.84;;;0.24;73.86
76858;BME280;65830;0.000;0.000;2024-01-30T02:25:38;101945.31;;;0.23;73.65
76858;BME280;65830;0.000;0.000;2024-01-30T02:28:03;101951.38;;;0.26;72.86
76858;BME280;65830;0.000;0.000;2024-01-30T02:30:29;101952.09;;;0.37;71.53
76858;BME280;65830;0.000;0.000;2024-01-30T02:32:54;101959.06;;;0.38;71.80
76858;BME280;65830;0.000;0.000;2024-01-30T02:35:20;101969.50;;;0.40;70.74
76858;BME280;65830;0.000;0.000;2024-01-30T02:37:45;101979.97;;;0.37;71.21
76858;BME280;65830;0.000;0.000;2024-01-30T02:40:11;101971.50;;;0.12;72.70
76858;BME280;65830;0.000;0.000;2024-01-30T02:42:36;101972.03;;;0.46;71.82
76858;BME280;65830;0.000;0.000;2024-01-30T02:45:02;101970.38;;;0.37;71.63
76858;BME280;65830;0.000;0.000;2024-01-30T02:47:27;101971.34;;;0.29;72.95
76858;BME280;65830;0.000;0.000;2024-01-30T02:49:53;101966.56;;;0.68;70.84
76858;BME280;65830;0.000;0.000;2024-01-30T02:52:18;101965.53;;;0.79;69.61
76858;BME280;65830;0.000;0.000;2024-01-30T02:54:44;101971.81;;;0.65;69.78
76858;BME280;65830;0.000;0.000;2024-01-30T02:57:10;101971.81;;;0.65;69.91
76858;BME280;65830;0.000;0.000;2024-01-30T02:59:35;101972.50;;;0.79;68.93
76858;BME280;65830;0.000;0.000;2024-01-30T03:02:01;101973.50;;;0.69;69.43
76858;BME280;65830;0.000;0.000;2024-01-30T03:04:27;101977.41;;;0.32;70.96
76858;BME280;65830;0.000;0.000;2024-01-30T03:06:52;101974.81;;;0.31;71.58
76858;BME280;65830;0.000;0.000;2024-01-30T03:09:18;101965.50;;;0.04;73.30
76858;BME280;65830;0.000;0.000;2024-01-30T03:11:43;101977.78;;;-0.05;74.80
76858;BME280;65830;0.000;0.000;2024-01-30T03:14:09;101973.53;;;-0.16;75.23
76858;BME280;65830;0.000;0.000;2024-01-30T03:16:36;101977.91;;;-0.20;75.24
76858;BME280;65830;0.000;0.000;2024-01-30T03:19:03;101984.09;;;-0.32;75.69
76858;BME280;65830;0.000;0.000;2024-01-30T03:21:29;101978.91;;;-0.33;76.01
76858;BME280;65830;0.000;0.000;2024-01-30T03:23:54;101971.09;;;-0.36;76.16
76858;BME280;65830;0.000;0.000;2024-01-30T03:26:20;101968.38;;;-0.21;75.27
76858;BME280;65830;0.000;0.000;2024-01-30T03:28:45;101966.50;;;-0.08;74.48
76858;BME280;65830;0.000;0.000;2024-01-30T03:31:13;101966.44;;;-0.02;73.68
76858;BME280;65830;0.000;0.000;2024-01-30T03:33:39;101959.47;;;0.00;73.78
76858;BME280;65830;0.000;0.000;2024-01-30T03:36:05;101958.44;;;0.15;73.19
76858;BME280;65830;0.000;0.000;2024-01-30T03:38:30;101965.19;;;0.36;72.19
76858;BME280;65830;0.000;0.000;2024-01-30T03:40:58;101966.97;;;0.34;72.19
76858;BME280;65830;0.000;0.000;2024-01-30T03:43:24;101961.59;;;0.46;71.12
76858;BME280;65830;0.000;0.000;2024-01-30T03:45:49;101970.44;;;0.34;71.31
76858;BME280;65830;0.000;0.000;2024-01-30T03:48:15;101967.94;;;0.22;71.57
76858;BME280;65830;0.000;0.000;2024-01-30T03:50:40;101966.00;;;0.41;71.53
76858;BME280;65830;0.000;0.000;2024-01-30T03:53:06;101965.44;;;0.10;72.64
76858;BME280;65830;0.000;0.000;2024-01-30T03:55:31;101951.72;;;-0.08;74.39
76858;BME280;65830;0.000;0.000;2024-01-30T03:57:57;101964.38;;;0.29;73.03
76858;BME280;65830;0.000;0.000;2024-01-30T04:00:23;101959.28;;;0.17;73.63
76858;BME280;65830;0.000;0.000;2024-01-30T04:02:48;101959.38;;;0.08;74.49
76858;BME280;65830;0.000;0.000;2024-01-30T04:05:14;101962.16;;;-0.11;75.39
76858;BME280;65830;0.000;0.000;2024-01-30T04:07:39;101963.09;;;-0.16;75.65
76858;BME280;65830;0.000;0.000;2024-01-30T04:10:05;101965.72;;;-0.18;76.09
76858;BME280;65830;0.000;0.000;2024-01-30T04:12:31;101970.00;;;-0.11;76.16
76858;BME280;65830;0.000;0.000;2024-01-30T04:14:56;101972.78;;;-0.31;76.82
76858;BME280;65830;0.000;0.000;2024-01-30T04:17:22;101963.28;;;-0.38;77.63
76858;BME280;65830;0.000;0.000;2024-01-30T04:19:48;101963.19;;;-0.26;76.92
76858;BME280;65830;0.000;0.000;2024-01-30T04:22:13;101964.13;;;-0.34;76.95
76858;BME280;65830;0.000;0.000;2024-01-30T04:24:39;101969.59;;;-0.65;78.43
76858;BME280;65830;0.000;0.000;2024-01-30T04:27:04;101967.97;;;-0.85;78.91
76858;BME280;65830;0.000;0.000;2024-01-30T04:29:30;101977.47;;;-0.76;79.17
76858;BME280;65830;0.000;0.000;2024-01-30T04:31:57;101963.63;;;-0.86;79.98
76858;BME280;65830;0.000;0.000;2024-01-30T04:34:23;101973.19;;;-0.85;80.17
76858;BME280;65830;0.000;0.000;2024-01-30T04:36:48;101979.13;;;-0.61;79.30
76858;BME280;65830;0.000;0.000;2024-01-30T04:39:14;101978.25;;;-0.66;78.77
76858;BME280;65830;0.000;0.000;2024-01-30T04:41:39;101986.00;;;-0.51;78.40
76858;BME280;65830;0.000;0.000;2024-01-30T04:44:05;101982.59;;;-0.62;79.19
76858;BME280;65830;0.000;0.000;2024-01-30T04:46:30;101993.66;;;-0.29;77.46
76858;BME280;65830;0.000;0.000;2024-01-30T04:48:56;101998.81;;;-0.23;76.12
76858;BME280;65830;0.000;0.000;2024-01-30T04:51:21;101997.81;;;-0.08;75.58
76858;BME280;65830;0.000;0.000;2024-01-30T04:53:47;101996.28;;;-0.34;75.74
76858;BME280;65830;0.000;0.000;2024-01-30T04:56:12;101991.03;;;-0.28;75.87
76858;BME280;65830;0.000;0.000;2024-01-30T04:58:38;102002.41;;;-0.36;76.02
76858;BME280;65830;0.000;0.000;2024-01-30T05:01:03;101999.66;;;-0.21;74.71
76858;BME280;65830;0.000;0.000;2024-01-30T05:03:32;102003.88;;;-0.05;74.14
76858;BME280;65830;0.000;0.000;2024-01-30T05:05:57;102000.22;;;0.15;72.83
76858;BME280;65830;0.000;0.000;2024-01-30T05:08:23;102000.22;;;0.12;72.60
76858;BME280;65830;0.000;0.000;2024-01-30T05:10:48;101999.34;;;0.16;72.50
76858;BME280;65830;0.000;0.000;2024-01-30T05:13:14;102007.25;;;0.05;72.79
76858;BME280;65830;0.000;0.000;2024-01-30T05:15:40;102005.50;;;0.10;72.92
76858;BME280;65830;0.000;0.000;2024-01-30T05:18:05;102001.97;;;0.16;72.22
76858;BME280;65830;0.000;0.000;2024-01-30T05:20:31;102004.72;;;0.01;73.35
76858;BME280;65830;0.000;0.000;2024-01-30T05:22:56;102000.09;;;0.27;72.65
76858;BME280;65830;0.000;0.000;2024-01-30T05:25:22;102000.84;;;0.37;71.45
76858;BME280;65830;0.000;0.000;2024-01-30T05:27:48;101996.47;;;0.39;71.32
76858;BME280;65830;0.000;0.000;2024-01-30T05:30:15;101990.69;;;0.09;72.76
76858;BME280;65830;0.000;0.000;2024-01-30T05:32:40;101996.84;;;0.04;73.39
76858;BME280;65830;0.000;0.000;2024-01-30T05:35:06;101993.25;;;0.15;73.21
76858;BME280;65830;0.000;0.000;2024-01-30T05:37:33;101996.78;;;0.10;76.54
76858;BME280;65830;0.000;0.000;2024-01-30T05:39:58;102016.84;;;0.06;76.81
76858;BME280;65830;0.000;0.000;2024-01-30T05:42:24;101999.31;;;0.19;73.82
76858;BME280;65830;0.000;0.000;2024-01-30T05:44:50;102004.47;;;0.24;73.41
76858;BME280;65830;0.000;0.000;2024-01-30T05:47:15;102008.53;;;0.51;71.02
76858;BME280;65830;0.000;0.000;2024-01-30T05:49:41;102010.16;;;0.61;69.36
76858;BME280;65830;0.000;0.000;2024-01-30T05:52:07;102006.53;;;0.74;68.25
76858;BME280;65830;0.000;0.000;2024-01-30T05:54:32;102004.22;;;0.48;69.29
76858;BME280;65830;0.000;0.000;2024-01-30T05:56:58;101999.16;;;0.34;70.47
76858;BME280;65830;0.000;0.000;2024-01-30T05:59:24;101987.78;;;0.38;69.85
76858;BME280;65830;0.000;0.000;2024-01-30T06:01:49;102006.47;;;0.79;68.85
76858;BME280;65830;0.000;0.000;2024-01-30T06:04:15;102002.91;;;0.85;68.39
76858;BME280;65830;0.000;0.000;2024-01-30T06:06:41;101997.16;;;0.56;69.45
76858;BME280;65830;0.000;0.000;2024-01-30T06:09:06;101996.22;;;0.62;69.53
76858;BME280;65830;0.000;0.000;2024-01-30T06:11:34;102004.88;;;0.67;70.20
76858;BME280;65830;0.000;0.000;2024-01-30T06:13:59;102005.00;;;0.56;69.94
76858;BME280;65830;0.000;0.000;2024-01-30T06:16:25;102018.97;;;0.54;69.99
76858;BME280;65830;0.000;0.000;2024-01-30T06:18:55;102014.53;;;0.59;69.89
76858;BME280;65830;0.000;0.000;2024-01-30T06:21:20;102017.06;;;0.68;69.68
76858;BME280;65830;0.000;0.000;2024-01-30T06:23:46;102021.97;;;0.93;68.42
76858;BME280;65830;0.000;0.000;2024-01-30T06:26:11;102017.59;;;0.96;67.61
76858;BME280;65830;0.000;0.000;2024-01-30T06:28:37;102014.09;;;0.96;68.57
76858;BME280;65830;0.000;0.000;2024-01-30T06:31:02;102009.00;;;0.85;68.45
76858;BME280;65830;0.000;0.000;2024-01-30T06:33:28;102021.88;;;1.02;68.07
76858;BME280;65830;0.000;0.000;2024-01-30T06:35:54;102021.88;;;1.02;67.97
76858;BME280;65830;0.000;0.000;2024-01-30T06:38:19;102019.28;;;1.01;67.61
76858;BME280;65830;0.000;0.000;2024-01-30T06:40:45;102015.06;;;0.89;69.16
76858;BME280;65830;0.000;0.000;2024-01-30T06:43:10;102016.81;;;0.90;69.14
76858;BME280;65830;0.000;0.000;2024-01-30T06:45:36;102016.44;;;1.17;68.88
76858;BME280;65830;0.000;0.000;2024-01-30T06:48:02;102011.56;;;0.90;69.60
76858;BME280;65830;0.000;0.000;2024-01-30T06:50:28;102018.75;;;0.72;69.64
76858;BME280;65830;0.000;0.000;2024-01-30T06:52:53;102019.69;;;0.65;70.54
76858;BME280;65830;0.000;0.000;2024-01-30T06:55:19;102016.16;;;0.69;70.44
76858;BME280;65830;0.000;0.000;2024-01-30T06:57:44;102023.00;;;0.81;70.05
76858;BME280;65830;0.000;0.000;2024-01-30T07:00:10;102016.63;;;1.05;69.11
76858;BME280;65830;0.000;0.000;2024-01-30T07:02:36;102027.66;;;1.26;67.99
76858;BME280;65830;0.000;0.000;2024-01-30T07:05:02;102024.50;;;1.01;68.87
76858;BME280;65830;0.000;0.000;2024-01-30T07:07:28;102034.69;;;1.21;68.69
76858;BME280;65830;0.000;0.000;2024-01-30T07:09:54;102029.59;;;1.11;68.48
76858;BME280;65830;0.000;0.000;2024-01-30T07:12:24;102035.19;;;0.81;69.34
76858;BME280;65830;0.000;0.000;2024-01-30T07:14:51;102024.88;;;0.70;69.98
76858;BME280;65830;0.000;0.000;2024-01-30T07:17:17;102021.19;;;0.88;69.43
76858;BME280;65830;0.000;0.000;2024-01-30T07:19:42;102021.06;;;0.97;69.09
76858;BME280;65830;0.000;0.000;2024-01-30T07:22:08;102016.44;;;1.17;68.15
76858;BME280;65830;0.000;0.000;2024-01-30T07:24:34;102030.00;;;1.44;65.56
76858;BME280;65830;0.000;0.000;2024-01-30T07:26:59;102023.19;;;1.32;65.00
76858;BME280;65830;0.000;0.000;2024-01-30T07:29:25;102031.00;;;1.37;65.32
76858;BME280;65830;0.000;0.000;2024-01-30T07:31:50;102034.50;;;1.34;65.30
76858;BME280;65830;0.000;0.000;2024-01-30T07:34:16;102033.81;;;1.22;65.89
76858;BME280;65830;0.000;0.000;2024-01-30T07:36:41;102037.88;;;1.43;65.38
76858;BME280;65830;0.000;0.000;2024-01-30T07:39:07;102035.53;;;1.23;65.85
76858;BME280;65830;0.000;0.000;2024-01-30T07:41:32;102035.00;;;1.63;64.72
76858;BME280;65830;0.000;0.000;2024-01-30T07:43:58;102036.81;;;1.54;65.07
76858;BME280;65830;0.000;0.000;2024-01-30T07:46:24;102042.13;;;1.51;68.67
76858;BME280;65830;0.000;0.000;2024-01-30T07:48:49;102039.78;;;1.33;68.42
76858;BME280;65830;0.000;0.000;2024-01-30T07:51:18;102033.31;;;1.57;70.42
76858;BME280;65830;0.000;0.000;2024-01-30T07:53:43;102034.06;;;1.65;65.39
76858;BME280;65830;0.000;0.000;2024-01-30T07:56:19;102036.88;;;1.51;64.51
76858;BME280;65830;0.000;0.000;2024-01-30T07:58:46;102030.72;;;1.55;64.02
76858;BME280;65830;0.000;0.000;2024-01-30T08:01:11;102034.88;;;1.69;64.34
76858;BME280;65830;0.000;0.000;2024-01-30T08:03:37;102032.28;;;1.67;63.42
76858;BME280;65830;0.000;0.000;2024-01-30T08:06:05;102029.56;;;1.75;63.04
76858;BME280;65830;0.000;0.000;2024-01-30T08:08:32;102029.38;;;1.84;62.50
76858;BME280;65830;0.000;0.000;2024-01-30T08:10:57;102034.72;;;1.78;62.08
76858;BME280;65830;0.000;0.000;2024-01-30T08:13:23;102035.88;;;1.60;63.17
76858;BME280;65830;0.000;0.000;2024-01-30T08:15:48;102025.03;;;1.85;62.89
76858;BME280;65830;0.000;0.000;2024-01-30T08:18:14;102018.56;;;2.04;62.12
76858;BME280;65830;0.000;0.000;2024-01-30T08:20:39;102019.25;;;2.15;60.23
76858;BME280;65830;0.000;0.000;2024-01-30T08:23:04;102020.91;;;2.21;60.28
76858;BME280;65830;0.000;0.000;2024-01-30T08:25:30;102022.25;;;1.94;60.99
76858;BME280;65830;0.000;0.000;2024-01-30T08:27:55;102028.22;;;2.02;60.07
76858;BME280;65830;0.000;0.000;2024-01-30T08:30:22;102023.75;;;2.09;59.47
76858;BME280;65830;0.000;0.000;2024-01-30T08:32:48;102024.03;;;2.42;58.24
76858;BME280;65830;0.000;0.000;2024-01-30T08:35:13;102025.16;;;2.28;58.72
76858;BME280;65830;0.000;0.000;2024-01-30T08:37:40;102026.53;;;2.48;58.10
76858;BME280;65830;0.000;0.000;2024-01-30T08:40:06;102027.28;;;2.54;57.08
76858;BME280;65830;0.000;0.000;2024-01-30T08:42:33;102029.06;;;2.52;57.58
76858;BME280;65830;0.000;0.000;2024-01-30T08:44:59;102036.09;;;2.50;58.10
76858;BME280;65830;0.000;0.000;2024-01-30T08:47:24;102029.13;;;2.49;57.87
76858;BME280;65830;0.000;0.000;2024-01-30T08:49:50;102028.16;;;2.53;56.68
76858;BME280;65830;0.000;0.000;2024-01-30T08:52:16;102023.41;;;2.29;56.96
76858;BME280;65830;0.000;0.000;2024-01-30T08:54:42;102028.88;;;2.63;56.33
76858;BME280;65830;0.000;0.000;2024-01-30T08:57:08;102017.66;;;2.55;56.68
76858;BME280;65830;0.000;0.000;2024-01-30T08:59:34;102021.00;;;2.63;55.78
76858;BME280;65830;0.000;0.000;2024-01-30T09:01:59;102027.13;;;3.06;54.53
76858;BME280;65830;0.000;0.000;2024-01-30T09:04:25;102013.56;;;2.85;54.81
76858;BME280;65830;0.000;0.000;2024-01-30T09:06:50;102017.66;;;2.56;55.14
76858;BME280;65830;0.000;0.000;2024-01-30T09:09:16;102018.91;;;2.81;54.62
76858;BME280;65830;0.000;0.000;2024-01-30T09:11:43;102026.31;;;3.04;54.03
76858;BME280;65830;0.000;0.000;2024-01-30T09:14:08;102022.09;;;2.95;54.14
76858;BME280;65830;0.000;0.000;2024-01-30T09:16:34;102018.38;;;3.05;54.12
76858;BME280;65830;0.000;0.000;2024-01-30T09:18:59;102013.09;;;3.08;53.44
76858;BME280;65830;0.000;0.000;2024-01-30T09:21:25;102009.22;;;3.25;53.46
76858;BME280;65830;0.000;0.000;2024-01-30T09:23:52;102002.47;;;3.14;53.38
76858;BME280;65830;0.000;0.000;2024-01-30T09:26:17;102001.84;;;3.42;52.89
76858;BME280;65830;0.000;0.000;2024-01-30T09:28:43;102008.81;;;3.04;53.60
76858;BME280;65830;0.000;0.000;2024-01-30T09:31:11;102000.09;;;3.02;54.09
76858;BME280;65830;0.000;0.000;2024-01-30T09:33:37;101995.00;;;2.96;54.00
76858;BME280;65830;0.000;0.000;2024-01-30T09:36:04;101993.00;;;2.65;55.36
76858;BME280;65830;0.000;0.000;2024-01-30T09:38:30;101989.25;;;2.77;55.05
76858;BME280;65830;0.000;0.000;2024-01-30T09:40:55;101995.00;;;2.96;55.09
76858;BME280;65830;0.000;0.000;2024-01-30T09:43:22;101986.16;;;3.00;54.67
76858;BME280;65830;0.000;0.000;2024-01-30T09:45:48;101982.25;;;3.20;53.39
76858;BME280;65830;0.000;0.000;2024-01-30T09:48:15;101977.81;;;3.22;53.28
76858;BME280;65830;0.000;0.000;2024-01-30T09:50:40;101977.28;;;3.07;54.17
76858;BME280;65830;0.000;0.000;2024-01-30T09:53:06;101979.19;;;2.99;54.26
76858;BME280;65830;0.000;0.000;2024-01-30T09:55:33;101969.31;;;3.10;54.31
76858;BME280;65830;0.000;0.000;2024-01-30T09:58:00;101969.97;;;3.20;54.54
76858;BME280;65830;0.000;0.000;2024-01-30T10:00:26;101977.97;;;3.15;53.91
76858;BME280;65830;0.000;0.000;2024-01-30T10:02:52;101973.78;;;3.07;53.60
76858;BME280;65830;0.000;0.000;2024-01-30T10:05:18;101970.13;;;3.14;53.32
76858;BME280;65830;0.000;0.000;2024-01-30T10:07:53;101973.88;;;3.02;53.60
76858;BME280;65830;0.000;0.000;2024-01-30T10:10:21;101979.03;;;3.44;53.58
76858;BME280;65830;0.000;0.000;2024-01-30T10:12:46;101972.03;;;3.07;53.78
76858;BME280;65830;0.000;0.000;2024-01-30T10:15:12;101970.84;;;3.19;53.55
76858;BME280;65830;0.000;0.000;2024-01-30T10:17:38;101968.75;;;3.35;53.17
76858;BME280;65830;0.000;0.000;2024-01-30T10:20:04;101973.94;;;3.74;52.90
76858;BME280;65830;0.000;0.000;2024-01-30T10:22:30;101960.69;;;4.13;51.18
76858;BME280;65830;0.000;0.000;2024-01-30T10:24:56;101958.84;;;3.82;50.87
76858;BME280;65830;0.000;0.000;2024-01-30T10:27:27;101960.19;;;3.98;50.53
76858;BME280;65830;0.000;0.000;2024-01-30T10:29:55;101956.84;;;3.92;50.85
76858;BME280;65830;0.000;0.000;2024-01-30T10:32:20;101961.69;;;4.09;50.12
76858;BME280;65830;0.000;0.000;2024-01-30T10:34:46;101961.53;;;4.13;50.16
76858;BME280;65830;0.000;0.000;2024-01-30T10:37:12;101960.34;;;4.25;48.09
76858;BME280;65830;0.000;0.000;2024-01-30T10:39:40;101958.09;;;4.11;48.70
76858;BME280;65830;0.000;0.000;2024-01-30T10:42:07;101961.59;;;4.12;49.17
76858;BME280;65830;0.000;0.000;2024-01-30T10:44:36;101950.97;;;4.16;49.19
76858;BME280;65830;0.000;0.000;2024-01-30T10:47:03;101954.69;;;4.08;49.43
76858;BME280;65830;0.000;0.000;2024-01-30T10:49:31;101947.72;;;4.07;49.07
76858;BME280;65830;0.000;0.000;2024-01-30T10:51:58;101943.75;;;3.90;50.01
76858;BME280;65830;0.000;0.000;2024-01-30T10:54:23;101952.78;;;4.14;50.50
76858;BME280;65830;0.000;0.000;2024-01-30T10:56:50;101941.34;;;4.78;48.01
76858;BME280;65830;0.000;0.000;2024-01-30T10:59:16;101936.47;;;4.64;47.14
76858;BME280;65830;0.000;0.000;2024-01-30T11:01:41;101945.16;;;4.68;46.82
76858;BME280;65830;0.000;0.000;2024-01-30T11:04:08;101941.31;;;4.48;47.75
76858;BME280;65830;0.000;0.000;2024-01-30T11:06:40;101942.78;;;4.27;47.67
76858;BME280;65830;0.000;0.000;2024-01-30T11:09:06;101943.16;;;4.76;46.30
76858;BME280;65830;0.000;0.000;2024-01-30T11:11:51;101940.09;;;4.90;47.03
76858;BME280;65830;0.000;0.000;2024-01-30T11:14:24;101930.44;;;5.18;46.29
76858;BME280;65830;0.000;0.000;2024-01-30T11:16:51;101926.47;;;5.33;45.32
76858;BME280;65830;0.000;0.000;2024-01-30T11:19:22;101922.66;;;5.42;44.81
76858;BME280;65830;0.000;0.000;2024-01-30T11:21:49;101921.09;;;5.36;45.28
76858;BME280;65830;0.000;0.000;2024-01-30T11:24:15;101919.66;;;5.53;44.89
76858;BME280;65830;0.000;0.000;2024-01-30T11:26:42;101917.56;;;5.89;44.76
76858;BME280;65830;0.000;0.000;2024-01-30T11:29:07;101914.13;;;6.61;43.12
76858;BME280;65830;0.000;0.000;2024-01-30T11:31:33;101905.88;;;6.92;42.42
76858;BME280;65830;0.000;0.000;2024-01-30T11:33:59;101903.75;;;7.45;41.14
76858;BME280;65830;0.000;0.000;2024-01-30T11:36:25;101904.16;;;6.91;41.67
76858;BME280;65830;0.000;0.000;2024-01-30T11:38:51;101894.78;;;7.06;42.45
76858;BME280;65830;0.000;0.000;2024-01-30T11:41:17;101894.97;;;7.24;41.86
76858;BME280;65830;0.000;0.000;2024-01-30T11:43:43;101897.59;;;7.24;41.89
76858;BME280;65830;0.000;0.000;2024-01-30T11:46:16;101884.97;;;7.52;41.21
76858;BME280;65830;0.000;0.000;2024-01-30T11:48:41;101882.63;;;8.84;38.77
76858;BME280;65830;0.000;0.000;2024-01-30T11:51:07;101863.91;;;10.10;35.26
76858;BME280;65830;0.000;0.000;2024-01-30T11:53:33;101875.28;;;8.90;35.38
76858;BME280;65830;0.000;0.000;2024-01-30T11:55:58;101873.78;;;8.85;37.27
76858;BME280;65830;0.000;0.000;2024-01-30T11:58:26;101856.91;;;10.59;34.49
76858;BME280;65830;0.000;0.000;2024-01-30T12:00:53;101857.78;;;12.25;31.59
76858;BME280;65830;0.000;0.000;2024-01-30T12:03:18;101850.72;;;13.74;28.51
76858;BME280;65830;0.000;0.000;2024-01-30T12:05:44;101844.63;;;13.72;27.74
76858;BME280;65830;0.000;0.000;2024-01-30T12:08:16;101838.81;;;13.40;28.70
76858;BME280;65830;0.000;0.000;2024-01-30T12:10:42;101848.34;;;13.57;28.13
76858;BME280;65830;0.000;0.000;2024-01-30T12:13:07;101843.22;;;15.04;26.62
76858;BME280;65830;0.000;0.000;2024-01-30T12:15:33;101830.78;;;13.27;27.94
76858;BME280;65830;0.000;0.000;2024-01-30T12:18:07;101827.72;;;14.73;27.59
76858;BME280;65830;0.000;0.000;2024-01-30T12:20:33;101822.97;;;14.89;27.30
76858;BME280;65830;0.000;0.000;2024-01-30T12:22:58;101821.94;;;14.79;26.08
76858;BME280;65830;0.000;0.000;2024-01-30T12:25:24;101813.53;;;14.22;27.07
76858;BME280;65830;0.000;0.000;2024-01-30T12:27:50;101811.69;;;15.21;26.63
76858;BME280;65830;0.000;0.000;2024-01-30T12:30:16;101812.88;;;14.19;27.47
76858;BME280;65830;0.000;0.000;2024-01-30T12:32:43;101808.44;;;13.55;27.85
76858;BME280;65830;0.000;0.000;2024-01-30T12:35:12;101805.09;;;14.65;26.64
76858;BME280;65830;0.000;0.000;2024-01-30T12:37:38;101811.88;;;13.70;27.34
76858;BME280;65830;0.000;0.000;2024-01-30T12:40:04;101806.59;;;14.69;26.61
76858;BME280;65830;0.000;0.000;2024-01-30T12:42:31;101807.25;;;14.60;25.64
76858;BME280;65830;0.000;0.000;2024-01-30T12:44:59;101819.19;;;15.16;25.52
76858;BME280;65830;0.000;0.000;2024-01-30T12:47:25;101798.97;;;15.47;24.92
76858;BME280;65830;0.000;0.000;2024-01-30T12:49:51;101810.09;;;14.70;26.24
76858;BME280;65830;0.000;0.000;2024-01-30T12:52:20;101803.22;;;15.03;25.53
76858;BME280;65830;0.000;0.000;2024-01-30T12:54:49;101808.50;;;14.55;26.11
76858;BME280;65830;0.000;0.000;2024-01-30T12:57:15;101807.09;;;15.45;24.80
76858;BME280;65830;0.000;0.000;2024-01-30T12:59:41;101803.16;;;14.92;25.28
76858;BME280;65830;0.000;0.000;2024-01-30T13:02:07;101800.94;;;12.95;28.11
76858;BME280;65830;0.000;0.000;2024-01-30T13:04:32;101802.75;;;11.23;30.96